createdAt,value
2022-09-22T00:01:07.179Z,2.90
2022-09-22T00:03:57.674Z,2.17
2022-09-22T00:06:47.638Z,1.77
2022-09-22T00:09:34.916Z,1.70
2022-09-22T00:12:22.062Z,2.13
2022-09-22T00:15:11.908Z,1.37
2022-09-22T00:17:59.287Z,2.87
2022-09-22T00:20:46.569Z,1.97
2022-09-22T00:23:33.782Z,2.03
2022-09-22T00:26:23.678Z,2.53
2022-09-22T00:29:14.504Z,4.27
2022-09-22T00:32:07.361Z,3.07
2022-09-22T00:34:54.879Z,2.40
2022-09-22T00:37:42.166Z,2.93
2022-09-22T00:40:29.763Z,3.00
2022-09-22T00:43:21.546Z,2.07
2022-09-22T00:46:19.307Z,1.40
2022-09-22T00:49:09.966Z,1.70
2022-09-22T00:51:57.415Z,1.87
2022-09-22T00:54:44.812Z,1.47
2022-09-22T00:57:35.940Z,2.43
2022-09-22T01:00:23.352Z,1.40
2022-09-22T01:03:16.910Z,2.80
2022-09-22T01:06:09.450Z,2.20
2022-09-22T01:08:57.920Z,1.33
2022-09-22T01:11:45.316Z,1.40
2022-09-22T01:14:52.898Z,1.57
2022-09-22T01:18:02.267Z,1.40
2022-09-22T01:21:20.459Z,1.60
2022-09-22T01:24:50.872Z,1.10
2022-09-22T01:28:18.017Z,1.37
2022-09-22T01:31:11.868Z,1.80
2022-09-22T01:34:08.854Z,1.10
2022-09-22T01:37:09.476Z,1.80
2022-09-22T01:40:02.601Z,1.00
2022-09-22T01:42:56.811Z,1.23
2022-09-22T01:45:46.565Z,1.30
2022-09-22T01:48:38.037Z,2.00
2022-09-22T01:51:29.000Z,1.30
2022-09-22T01:54:21.722Z,1.80
2022-09-22T01:57:19.468Z,2.67
2022-09-22T02:00:11.148Z,2.43
2022-09-22T02:03:07.540Z,3.57
2022-09-22T02:06:01.727Z,2.37
2022-09-22T02:08:55.398Z,2.83
2022-09-22T02:11:44.020Z,3.23
2022-09-22T02:14:32.060Z,2.83
2022-09-22T02:17:19.874Z,2.67
2022-09-22T02:20:07.825Z,4.60
2022-09-22T02:22:57.154Z,4.30
2022-09-22T02:25:46.120Z,3.30
2022-09-22T02:28:37.862Z,4.80
2022-09-22T02:31:28.719Z,2.60
2022-09-22T02:34:16.525Z,2.47
2022-09-22T02:37:11.576Z,2.53
2022-09-22T02:40:09.060Z,3.03
2022-09-22T02:43:05.895Z,2.97
2022-09-22T02:45:59.328Z,1.80
2022-09-22T02:48:51.226Z,4.17
2022-09-22T02:51:39.022Z,2.20
2022-09-22T02:54:26.424Z,2.03
2022-09-22T02:57:15.217Z,3.77
2022-09-22T03:00:03.692Z,2.90
2022-09-22T03:02:51.259Z,2.23
2022-09-22T03:05:38.824Z,2.57
2022-09-22T03:08:26.471Z,1.50
2022-09-22T03:11:13.728Z,2.53
2022-09-22T03:14:02.438Z,1.90
2022-09-22T03:16:49.768Z,2.60
2022-09-22T03:19:37.129Z,5.73
2022-09-22T03:22:24.559Z,1.57
2022-09-22T03:25:13.050Z,1.70
2022-09-22T03:28:00.531Z,2.43
2022-09-22T03:30:49.456Z,2.80
2022-09-22T03:33:37.151Z,2.50
2022-09-22T03:36:24.567Z,1.30
2022-09-22T03:39:11.790Z,1.50
2022-09-22T03:41:59.174Z,1.07
2022-09-22T03:44:46.499Z,1.27
2022-09-22T03:47:35.026Z,1.10
2022-09-22T03:50:22.886Z,1.50
2022-09-22T03:53:10.207Z,1.27
2022-09-22T03:56:07.152Z,1.17
2022-09-22T03:58:54.568Z,0.70
2022-09-22T04:01:42.613Z,0.90
2022-09-22T04:04:32.583Z,1.97
2022-09-22T04:07:19.934Z,1.23
2022-09-22T04:10:09.064Z,1.20
2022-09-22T04:12:56.700Z,0.90
2022-09-22T04:15:44.257Z,3.23
2022-09-22T04:18:31.783Z,1.33
2022-09-22T04:21:20.924Z,2.67
2022-09-22T04:24:11.292Z,1.47
2022-09-22T04:30:07.980Z,1.20
2022-09-22T04:32:55.489Z,1.77
2022-09-22T04:35:42.986Z,1.47
2022-09-22T04:38:32.003Z,1.30
2022-09-22T04:41:19.851Z,1.50
2022-09-22T04:44:07.086Z,1.33
2022-09-22T04:46:55.947Z,1.40
2022-09-22T04:49:43.360Z,2.83
2022-09-22T04:52:30.728Z,1.50
2022-09-22T04:55:21.067Z,2.47
2022-09-22T04:58:08.707Z,3.93
2022-09-22T05:00:56.672Z,4.97
2022-09-22T05:03:44.427Z,3.63
2022-09-22T05:06:32.124Z,4.23
2022-09-22T05:09:20.828Z,4.23
2022-09-22T05:12:09.657Z,4.80
2022-09-22T05:15:00.312Z,5.73
2022-09-22T05:17:48.787Z,4.23
2022-09-22T05:20:36.183Z,5.30
2022-09-22T05:23:23.588Z,2.83
2022-09-22T05:26:11.028Z,3.03
2022-09-22T05:28:59.848Z,1.70
2022-09-22T05:31:47.362Z,2.33
2022-09-22T05:34:34.741Z,2.80
2022-09-22T05:37:22.299Z,2.57
2022-09-22T05:40:11.319Z,1.90
2022-09-22T05:42:58.940Z,3.63
2022-09-22T05:45:47.751Z,2.87
2022-09-22T05:48:35.255Z,3.20
2022-09-22T05:51:22.709Z,3.23
2022-09-22T05:54:11.134Z,2.73
2022-09-22T05:56:58.477Z,2.73
2022-09-22T05:59:45.753Z,2.30
2022-09-22T06:02:34.713Z,1.90
2022-09-22T06:05:03.817Z,1.97
2022-09-22T06:07:32.863Z,5.50
2022-09-22T06:10:01.803Z,3.13
2022-09-22T06:12:30.965Z,5.57
2022-09-22T06:14:59.913Z,2.67
2022-09-22T06:17:28.891Z,3.63
2022-09-22T06:20:00.822Z,4.97
2022-09-22T06:22:29.785Z,2.93
2022-09-22T06:24:58.796Z,4.70
2022-09-22T06:27:27.763Z,4.43
2022-09-22T06:29:57.051Z,3.60
2022-09-22T06:32:26.042Z,5.33
2022-09-22T06:34:56.116Z,3.43
2022-09-22T06:37:26.432Z,4.13
2022-09-22T06:39:55.416Z,2.73
2022-09-22T06:42:24.475Z,2.27
2022-09-22T06:44:53.995Z,2.37
2022-09-22T06:47:23.789Z,2.33
2022-09-22T06:49:53.610Z,1.93
2022-09-22T06:52:22.590Z,2.40
2022-09-22T06:54:56.753Z,2.00
2022-09-22T06:57:27.956Z,1.80
2022-09-22T06:59:56.933Z,2.70
2022-09-22T07:02:29.447Z,2.20
2022-09-22T07:04:59.157Z,2.63
2022-09-22T07:07:28.932Z,3.83
2022-09-22T07:10:00.395Z,2.03
2022-09-22T07:12:29.996Z,3.13
2022-09-22T07:14:58.945Z,2.03
2022-09-22T07:17:28.267Z,1.83
2022-09-22T07:19:57.642Z,4.10
2022-09-22T07:22:26.935Z,3.47
2022-09-22T07:24:55.872Z,2.67
2022-09-22T07:27:26.351Z,8.67
2022-09-22T07:29:57.562Z,7.03
2022-09-22T07:32:30.262Z,6.20
2022-09-22T07:34:59.583Z,3.37
2022-09-22T07:37:36.171Z,2.37
2022-09-22T07:40:05.948Z,2.27
2022-09-22T07:42:36.272Z,2.30
2022-09-22T07:45:15.421Z,2.77
2022-09-22T07:48:16.186Z,1.90
2022-09-22T07:50:45.207Z,3.70
2022-09-22T07:53:14.230Z,2.00
2022-09-22T07:55:43.276Z,4.80
2022-09-22T07:58:17.262Z,2.17
2022-09-22T08:00:46.546Z,2.93
2022-09-22T08:03:16.456Z,3.00
2022-09-22T08:05:47.017Z,2.57
2022-09-22T08:08:16.917Z,4.47
2022-09-22T08:10:46.641Z,3.20
2022-09-22T08:13:23.994Z,2.37
2022-09-22T08:16:04.229Z,3.33
2022-09-22T08:18:38.016Z,2.27
2022-09-22T08:21:20.201Z,2.40
2022-09-22T08:33:54.776Z,1.53
2022-09-22T08:36:25.862Z,1.03
2022-09-22T08:38:56.171Z,1.67
2022-09-22T08:41:38.485Z,2.07
2022-09-22T08:44:22.949Z,1.07
2022-09-22T08:46:56.096Z,2.20
2022-09-22T08:49:46.586Z,1.50
2022-09-22T08:52:26.631Z,1.30
2022-09-22T08:54:59.827Z,4.13
2022-09-22T08:57:57.029Z,2.67
2022-09-22T09:00:43.470Z,1.67
2022-09-22T09:03:34.037Z,1.60
2022-09-22T09:06:31.723Z,1.40
2022-09-22T09:09:53.222Z,2.67
2022-09-22T09:13:34.092Z,2.23
2022-09-22T09:16:25.736Z,4.20
2022-09-22T09:19:03.444Z,1.07
2022-09-22T09:21:34.436Z,1.87
2022-09-22T09:27:04.572Z,2.50
2022-09-22T09:29:40.387Z,1.10
2022-09-22T09:32:21.405Z,1.90
2022-09-22T09:34:55.719Z,4.50
2022-09-22T09:37:25.624Z,0.83
2022-09-22T09:39:55.104Z,1.30
2022-09-22T09:42:31.480Z,0.90
2022-09-22T09:45:02.799Z,1.27
2022-09-22T09:48:02.176Z,1.37
2022-09-22T09:50:32.980Z,1.17
2022-09-22T09:53:01.983Z,1.40
2022-09-22T09:55:31.722Z,0.90
2022-09-22T09:58:07.182Z,1.63
2022-09-22T10:00:53.786Z,0.83
2022-09-22T10:03:28.729Z,0.50
2022-09-22T10:06:03.017Z,1.00
2022-09-22T10:08:35.111Z,1.40
2022-09-22T10:11:05.430Z,0.90
2022-09-22T10:13:37.319Z,1.00
2022-09-22T10:16:25.130Z,1.43
2022-09-22T10:19:12.808Z,2.47
2022-09-22T10:21:43.136Z,1.20
2022-09-22T10:24:30.530Z,0.70
2022-09-22T10:27:02.581Z,1.57
2022-09-22T10:29:34.380Z,0.90
2022-09-22T10:32:15.000Z,2.10
2022-09-22T10:37:26.800Z,1.23
2022-09-22T10:40:00.095Z,2.17
2022-09-22T10:42:37.432Z,0.97
2022-09-22T10:45:10.994Z,1.17
2022-09-22T10:47:55.854Z,1.50
2022-09-22T10:50:39.202Z,1.30
2022-09-22T10:53:28.480Z,1.00
2022-09-22T10:56:09.462Z,0.77
2022-09-22T10:59:18.509Z,0.90
2022-09-22T11:02:03.996Z,1.15
2022-09-22T11:04:55.436Z,1.30
2022-09-22T11:08:13.980Z,0.83
2022-09-22T11:11:12.066Z,1.13
2022-09-22T11:13:53.780Z,3.28
2022-09-22T11:16:52.245Z,0.93
2022-09-22T11:20:05.556Z,1.83
2022-09-22T11:22:57.304Z,1.10
2022-09-22T11:25:46.406Z,1.40
2022-09-22T11:28:39.348Z,2.87
2022-09-22T11:31:10.580Z,0.47
2022-09-22T11:34:10.758Z,2.40
2022-09-22T11:36:51.914Z,2.30
2022-09-22T11:39:39.820Z,2.13
2022-09-22T11:42:19.996Z,0.73
2022-09-22T11:45:04.212Z,1.20
2022-09-22T11:47:58.948Z,2.13
2022-09-22T11:50:51.270Z,1.73
2022-09-22T11:53:46.702Z,2.57
2022-09-22T11:56:38.313Z,0.73
2022-09-22T11:59:30.205Z,1.57
2022-09-22T12:02:04.732Z,1.07
2022-09-22T12:04:39.440Z,1.80
2022-09-22T12:07:16.373Z,1.20
2022-09-22T12:09:51.104Z,1.30
2022-09-22T12:12:23.237Z,0.97
2022-09-22T12:15:01.166Z,0.83
2022-09-22T12:17:39.534Z,3.17
2022-09-22T12:20:34.588Z,2.20
2022-09-22T12:23:35.165Z,3.80
2022-09-22T12:26:10.577Z,1.50
2022-09-22T12:28:42.579Z,2.00
2022-09-22T12:31:15.410Z,1.73
2022-09-22T12:33:51.047Z,2.93
2022-09-22T12:36:29.689Z,1.13
2022-09-22T12:39:10.514Z,0.77
2022-09-22T12:41:49.282Z,1.57
2022-09-22T12:44:22.807Z,1.67
2022-09-22T12:46:56.599Z,2.27
2022-09-22T12:49:25.963Z,2.23
2022-09-22T12:51:55.083Z,1.30
2022-09-22T12:54:48.195Z,1.20
2022-09-22T12:57:46.192Z,0.83
2022-09-22T13:00:32.265Z,0.87
2022-09-22T13:03:50.382Z,1.57
2022-09-22T13:06:55.758Z,2.90
2022-09-22T13:09:28.523Z,0.70
2022-09-22T13:12:29.136Z,2.60
2022-09-22T13:15:16.686Z,0.70
2022-09-22T13:17:48.435Z,1.60
2022-09-22T13:20:26.689Z,0.70
2022-09-22T13:22:56.764Z,1.10
2022-09-22T13:25:28.921Z,0.70
2022-09-22T13:28:15.250Z,0.90
2022-09-22T13:30:46.373Z,0.73
2022-09-22T13:33:25.328Z,1.23
2022-09-22T13:36:03.821Z,1.40
2022-09-22T13:38:37.275Z,0.70
2022-09-22T13:41:13.534Z,0.70
2022-09-22T13:43:46.647Z,2.10
2022-09-22T13:46:24.286Z,0.63
2022-09-22T13:48:55.251Z,1.73
2022-09-22T13:51:27.802Z,3.07
2022-09-22T13:53:58.612Z,3.70
2022-09-22T13:56:28.074Z,1.30
2022-09-22T13:59:00.197Z,1.13
2022-09-22T14:01:31.810Z,1.47
2022-09-22T14:04:00.907Z,0.70
2022-09-22T14:06:33.868Z,1.10
2022-09-22T14:09:03.162Z,2.20
2022-09-22T14:11:33.540Z,0.90
2022-09-22T14:14:04.431Z,2.60
2022-09-22T14:16:39.880Z,0.87
2022-09-22T14:19:16.163Z,0.70
2022-09-22T14:21:51.307Z,0.60
2022-09-22T14:24:20.823Z,1.13
2022-09-22T14:26:52.807Z,2.40
2022-09-22T14:29:27.078Z,1.23
2022-09-22T14:32:02.775Z,0.63
2022-09-22T14:34:34.467Z,1.17
2022-09-22T14:37:20.504Z,2.13
2022-09-22T14:39:50.809Z,0.63
2022-09-22T14:42:25.706Z,2.00
2022-09-22T14:45:18.496Z,1.70
2022-09-22T14:47:48.328Z,2.20
2022-09-22T14:50:20.259Z,1.50
2022-09-22T14:52:57.574Z,1.00
2022-09-22T14:55:34.434Z,2.03
2022-09-22T14:58:07.640Z,1.17
2022-09-22T15:00:54.555Z,2.30
2022-09-22T15:03:29.409Z,1.33
2022-09-22T15:06:08.656Z,1.03
2022-09-22T15:08:39.276Z,0.80
2022-09-22T15:11:09.115Z,0.90
2022-09-22T15:13:42.942Z,0.70
2022-09-22T15:16:37.159Z,1.27
2022-09-22T15:19:06.705Z,0.83
2022-09-22T15:21:41.252Z,1.07
2022-09-22T15:24:12.859Z,1.23
2022-09-22T15:26:44.628Z,1.80
2022-09-22T15:29:17.331Z,3.17
2022-09-22T15:31:47.124Z,0.67
2022-09-22T15:34:16.524Z,0.93
2022-09-22T15:36:49.989Z,1.10
2022-09-22T15:39:24.399Z,0.57
2022-09-22T15:41:55.322Z,1.17
2022-09-22T15:44:24.296Z,1.57
2022-09-22T15:46:55.170Z,1.23
2022-09-22T15:49:26.467Z,1.97
2022-09-22T15:51:56.776Z,1.23
2022-09-22T15:54:27.552Z,0.80
2022-09-22T15:56:59.210Z,1.70
2022-09-22T15:59:32.507Z,1.90
2022-09-22T16:02:02.745Z,1.03
2022-09-22T16:04:33.715Z,1.07
2022-09-22T16:07:06.080Z,1.53
2022-09-22T16:09:38.616Z,0.50
2022-09-22T16:12:11.006Z,1.57
2022-09-22T16:14:42.516Z,1.97
2022-09-22T16:17:11.494Z,0.83
2022-09-22T16:19:40.468Z,1.43
2022-09-22T16:22:09.431Z,0.90
2022-09-22T16:24:39.760Z,0.70
2022-09-22T16:27:08.688Z,1.73
2022-09-22T16:29:38.399Z,1.27
2022-09-22T16:32:07.901Z,0.60
2022-09-22T16:34:37.405Z,1.30
2022-09-22T16:37:06.444Z,0.80
2022-09-22T16:39:35.392Z,0.83
2022-09-22T16:42:06.275Z,1.63
2022-09-22T16:44:35.230Z,1.87
2022-09-22T16:47:04.343Z,3.13
2022-09-22T16:49:34.133Z,1.43
2022-09-22T16:52:03.225Z,1.00
2022-09-22T16:54:34.512Z,3.27
2022-09-22T16:57:04.996Z,0.93
2022-09-22T16:59:34.487Z,0.90
2022-09-22T17:02:03.647Z,1.00
2022-09-22T17:04:33.043Z,1.27
2022-09-22T17:07:02.059Z,2.73
2022-09-22T17:09:32.218Z,2.20
2022-09-22T17:12:06.559Z,1.13
2022-09-22T17:14:37.061Z,2.07
2022-09-22T17:17:07.505Z,0.87
2022-09-22T17:19:36.625Z,2.23
2022-09-22T17:22:05.720Z,1.77
2022-09-22T17:24:34.693Z,1.40
2022-09-22T17:27:03.688Z,2.17
2022-09-22T17:29:33.227Z,1.00
2022-09-22T17:32:05.804Z,1.00
2022-09-22T17:34:53.012Z,2.77
2022-09-22T17:37:40.264Z,3.47
2022-09-22T17:40:27.771Z,4.30
2022-09-22T17:43:15.300Z,2.97
2022-09-22T17:46:02.908Z,1.30
2022-09-22T17:49:08.897Z,1.50
2022-09-22T17:52:13.751Z,2.07
2022-09-22T17:55:09.686Z,2.50
2022-09-22T17:57:57.332Z,2.17
2022-09-22T18:00:44.543Z,2.27
2022-09-22T18:03:31.713Z,1.40
2022-09-22T18:06:20.938Z,3.83
2022-09-22T18:09:08.338Z,2.20
2022-09-22T18:11:55.513Z,2.10
2022-09-22T18:14:45.993Z,1.57
2022-09-22T18:17:40.218Z,3.23
2022-09-22T18:20:27.954Z,1.33
2022-09-22T18:23:16.743Z,1.27
2022-09-22T18:26:04.356Z,1.77
2022-09-22T18:28:54.026Z,1.10
2022-09-22T18:31:42.003Z,1.97
2022-09-22T18:34:31.831Z,1.83
2022-09-22T18:37:20.504Z,1.20
2022-09-22T18:40:12.600Z,0.87
2022-09-22T18:43:00.348Z,3.90
2022-09-22T18:45:47.706Z,1.80
2022-09-22T18:48:34.795Z,1.53
2022-09-22T18:51:22.282Z,2.13
2022-09-22T18:54:15.325Z,1.77
2022-09-22T18:57:04.634Z,1.47
2022-09-22T18:59:52.374Z,2.80
2022-09-22T19:02:39.957Z,1.20
2022-09-22T19:05:28.379Z,1.30
2022-09-22T19:08:15.560Z,2.40
2022-09-22T19:11:03.134Z,7.37
2022-09-22T19:13:52.713Z,11.77
2022-09-22T19:16:42.149Z,12.10
2022-09-22T19:19:29.603Z,10.60
2022-09-22T19:22:18.077Z,8.10
2022-09-22T19:25:06.816Z,7.63
2022-09-22T19:27:54.712Z,4.40
2022-09-22T19:30:43.637Z,6.83
2022-09-22T19:33:31.122Z,4.10
2022-09-22T19:36:18.353Z,4.20
2022-09-22T19:39:08.485Z,4.30
2022-09-22T19:41:56.095Z,4.87
2022-09-22T19:44:43.572Z,3.47
2022-09-22T19:47:32.161Z,3.90
2022-09-22T19:50:20.022Z,3.50
2022-09-22T19:53:08.875Z,4.00
2022-09-22T19:55:56.500Z,3.27
2022-09-22T19:58:44.878Z,5.37
2022-09-22T20:01:35.469Z,2.80
2022-09-22T20:04:24.506Z,3.23
2022-09-22T20:07:12.150Z,6.03
2022-09-22T20:10:02.110Z,4.20
2022-09-22T20:12:50.085Z,3.50
2022-09-22T20:15:38.136Z,6.07
2022-09-22T20:18:25.843Z,4.30
2022-09-22T20:21:15.969Z,5.57
2022-09-22T20:24:05.064Z,5.50
2022-09-22T20:26:54.307Z,6.60
2022-09-22T20:29:41.818Z,4.17
2022-09-22T20:32:32.427Z,3.77
2022-09-22T20:35:21.991Z,3.07
2022-09-22T20:38:12.755Z,3.53
2022-09-22T20:41:02.629Z,3.43
2022-09-22T20:43:50.793Z,2.70
2022-09-22T20:46:38.262Z,2.47
2022-09-22T20:49:26.091Z,3.80
2022-09-22T20:52:15.579Z,3.00
2022-09-22T20:55:04.674Z,2.97
2022-09-22T20:57:51.853Z,2.13
2022-09-22T21:00:38.991Z,3.00
2022-09-22T21:03:26.373Z,4.47
2022-09-22T21:06:15.893Z,1.80
2022-09-22T21:09:20.786Z,4.00
2022-09-22T21:12:09.661Z,1.97
2022-09-22T21:14:57.508Z,3.03
2022-09-22T21:17:44.879Z,2.60
2022-09-22T21:20:32.283Z,2.77
2022-09-22T21:23:19.479Z,1.80
2022-09-22T21:26:08.185Z,4.13
2022-09-22T21:28:57.221Z,3.40
2022-09-22T21:31:45.971Z,1.90
2022-09-22T21:34:33.231Z,1.80
2022-09-22T21:37:23.484Z,2.20
2022-09-22T21:40:11.138Z,2.30
2022-09-22T21:42:58.666Z,2.20
2022-09-22T21:45:47.402Z,3.53
2022-09-22T21:48:37.112Z,2.67
2022-09-22T21:51:24.726Z,2.70
2022-09-22T21:54:15.772Z,2.10
2022-09-22T21:57:03.210Z,1.93
2022-09-22T21:59:52.881Z,1.70
2022-09-22T22:03:14.613Z,2.20
2022-09-22T22:06:08.532Z,3.33
2022-09-22T22:09:02.360Z,2.10
2022-09-22T22:11:53.841Z,2.13
2022-09-22T22:14:41.171Z,2.00
2022-09-22T22:17:28.425Z,1.90
2022-09-22T22:20:17.189Z,1.80
2022-09-22T22:23:04.773Z,1.80
2022-09-22T22:25:59.024Z,1.93
2022-09-22T22:28:46.781Z,3.63
2022-09-22T22:31:35.244Z,1.83
2022-09-22T22:34:25.601Z,1.80
2022-09-22T22:37:14.344Z,1.70
2022-09-22T22:40:02.462Z,3.00
2022-09-22T22:42:50.137Z,3.30
2022-09-22T22:45:37.333Z,2.70
2022-09-22T22:48:24.889Z,1.37
2022-09-22T22:51:15.556Z,2.37
2022-09-22T22:54:05.738Z,2.27
2022-09-22T22:56:53.310Z,3.10
2022-09-22T22:59:40.524Z,2.67
2022-09-22T23:02:31.054Z,2.47
2022-09-22T23:05:18.812Z,4.27
2022-09-22T23:08:06.548Z,3.00
2022-09-22T23:11:02.606Z,3.47
2022-09-22T23:13:53.659Z,4.20
2022-09-22T23:16:44.211Z,2.80
2022-09-22T23:19:31.444Z,2.77
2022-09-22T23:22:18.577Z,2.10
2022-09-22T23:25:06.596Z,2.77
2022-09-22T23:27:55.250Z,2.03
2022-09-22T23:30:43.037Z,2.30
2022-09-22T23:33:31.183Z,4.17
2022-09-22T23:36:20.605Z,2.07
2022-09-22T23:39:08.127Z,3.13
2022-09-22T23:41:55.610Z,2.33
2022-09-22T23:44:44.183Z,2.80
2022-09-22T23:47:32.910Z,2.53
2022-09-22T23:50:20.465Z,2.90
2022-09-22T23:53:08.424Z,2.47
2022-09-22T23:55:55.656Z,2.90
2022-09-22T23:58:42.957Z,4.70
